Главная страница
METAR-TAF:

METAR-TAF

Аэропорты :

Чита, Россия

Кадала

широта: 52-05N, долгота: 113-29E, высота над уровнем моря: 685 м

Текущие метеонаблюдения

Эта сводка был подготовлена 13 минут назад, в 21:30 UTC
Ветер 2 Узел переменных направлений
Температура -1°C
Влажность 69%
Давление 1019 hPa
Видимость 10 км и более

METAR: UIAA 252130Z VRB01MPS 9999 NSC M01/M06 Q1019 R29/CLRD70 NOSIG RMK QFE705/0941

Время: 06:43 (21:43 UTC)

Прогноз

Эта сводка был подготовлена 1 час и 43 минут назад, в 20:00 UTC
Прогноз действительный с 25-го 21 UTC до 26-го 21 UTC
Ветер 6 Узел от юго-восточный с порывами до 17 Узел
Видимость 10 км и более
временами
С 26-го 10 UTC до 26-го 18 UTC
Ветер 10 Узел от западный

TAF: UIAA 252000Z 2521/2621 14003G09MPS 9999 NSC TEMPO 2610/2618 26005MPS

Метеонаблюдения и прогнозы для более 4000 аэропортов (сводки METAR и TAF).

Имеющиеся станции представлены на карте желтыми и красными точками.

Чтобы увидеть название станции, наведите на нее мышь.

Затем щелкните, чтобы увидеть метеонаблюдения и метеопрогнозы.

Управление картой: чтобы увеличить масштаб, щелкните зеленые кнопки с черным крестиком; чтобы уменьшить масштаб, щелкните зеленую кнопку с тире; для просмотра соседних карт щелкайте зеленые стрелки.


METAR-TAF: